Croweburg, Kansas
Current Conditions -  °F | °C
As of 8:35 AM on Friday 24 Oct 2014 (Local Time) from KPTS Reporting Station
Clear Clear  
Wind Chill: 56°   Ceiling: Unl
Heat Index: NA   Visibility: 10mi
Dew Point: 56°   Wind: 6mph
Humidity: NA   Direction: 210°SSW
Pressure: 30.09"   Gusts: NA
Location:  37.5542°N, 94.6826°W
Report Text: KPTS 241335Z AUTO 21005KT 10SM CLR 13/14 A3009 RMK AO2 T01330135
Loading
Personal Weather Stations






























Interactive Weather Map
Tropical Storm Tracking
New forecast layout! Learn more

10-Day Weather Forecast

Advertisements
Track Severe Weather on mobile